sensor_id;sensor_type;location;lat;lon;timestamp;pressure;altitude;pressure_sealevel;temperature;humidity
52535;BME280;38443;53.164;5.802;2022-10-23T00:00:31;101566.25;;;8.72;100.00
52535;BME280;38443;53.164;5.802;2022-10-23T00:02:56;101565.38;;;8.70;100.00
52535;BME280;38443;53.164;5.802;2022-10-23T00:05:24;101560.09;;;8.67;100.00
52535;BME280;38443;53.164;5.802;2022-10-23T00:07:51;101570.78;;;8.65;100.00
52535;BME280;38443;53.164;5.802;2022-10-23T00:10:18;101569.91;;;8.63;100.00
52535;BME280;38443;53.164;5.802;2022-10-23T00:12:46;101587.69;;;8.63;100.00
52535;BME280;38443;53.164;5.802;2022-10-23T00:15:13;101577.03;;;8.63;100.00
52535;BME280;38443;53.164;5.802;2022-10-23T00:17:38;101579.69;;;8.64;100.00
52535;BME280;38443;53.164;5.802;2022-10-23T00:20:04;101588.63;;;8.58;100.00
52535;BME280;38443;53.164;5.802;2022-10-23T00:22:30;101585.03;;;8.63;100.00
52535;BME280;38443;53.164;5.802;2022-10-23T00:24:55;101577.09;;;8.58;100.00
52535;BME280;38443;53.164;5.802;2022-10-23T00:27:20;101584.13;;;8.64;100.00
52535;BME280;38443;53.164;5.802;2022-10-23T00:29:46;101583.25;;;8.65;100.00
52535;BME280;38443;53.164;5.802;2022-10-23T00:32:11;101583.22;;;8.66;100.00
52535;BME280;38443;53.164;5.802;2022-10-23T00:34:37;101578.78;;;8.67;100.00
52535;BME280;38443;53.164;5.802;2022-10-23T00:37:02;101571.63;;;8.69;100.00
52535;BME280;38443;53.164;5.802;2022-10-23T00:39:27;101576.97;;;8.66;100.00
52535;BME280;38443;53.164;5.802;2022-10-23T00:41:53;101583.22;;;8.66;100.00
52535;BME280;38443;53.164;5.802;2022-10-23T00:46:44;101573.50;;;8.57;100.00
52535;BME280;38443;53.164;5.802;2022-10-23T00:49:11;101574.44;;;8.53;100.00
52535;BME280;38443;53.164;5.802;2022-10-23T00:51:49;101571.81;;;8.46;100.00
52535;BME280;38443;53.164;5.802;2022-10-23T00:54:22;101579.84;;;8.39;100.00
52535;BME280;38443;53.164;5.802;2022-10-23T00:56:50;101580.78;;;8.35;100.00
52535;BME280;38443;53.164;5.802;2022-10-23T00:59:17;101582.56;;;8.33;100.00
52535;BME280;38443;53.164;5.802;2022-10-23T01:01:42;101587.97;;;8.26;100.00
52535;BME280;38443;53.164;5.802;2022-10-23T01:04:09;101582.63;;;8.26;100.00
52535;BME280;38443;53.164;5.802;2022-10-23T01:06:36;101570.22;;;8.26;100.00
52535;BME280;38443;53.164;5.802;2022-10-23T01:09:08;101563.06;;;8.27;100.00
52535;BME280;38443;53.164;5.802;2022-10-23T01:11:47;101550.63;;;8.26;100.00
52535;BME280;38443;53.164;5.802;2022-10-23T01:14:36;101563.09;;;8.24;100.00
52535;BME280;38443;53.164;5.802;2022-10-23T01:28:09;101560.56;;;8.08;100.00
52535;BME280;38443;53.164;5.802;2022-10-23T01:30:39;101560.56;;;8.07;100.00
52535;BME280;38443;53.164;5.802;2022-10-23T01:33:20;101549.91;;;8.04;100.00
52535;BME280;38443;53.164;5.802;2022-10-23T01:35:52;101555.28;;;8.02;100.00
52535;BME280;38443;53.164;5.802;2022-10-23T01:38:33;101548.16;;;7.99;100.00
52535;BME280;38443;53.164;5.802;2022-10-23T01:41:10;101549.06;;;7.98;100.00
52535;BME280;38443;53.164;5.802;2022-10-23T01:43:43;101544.63;;;7.99;100.00
52535;BME280;38443;53.164;5.802;2022-10-23T01:46:14;101548.22;;;7.96;100.00
52535;BME280;38443;53.164;5.802;2022-10-23T01:48:43;101546.47;;;7.91;100.00
52535;BME280;38443;53.164;5.802;2022-10-23T01:51:11;101545.59;;;7.86;100.00
52535;BME280;38443;53.164;5.802;2022-10-23T01:53:40;101546.50;;;7.85;100.00
52535;BME280;38443;53.164;5.802;2022-10-23T01:56:12;101547.38;;;7.85;100.00
52535;BME280;38443;53.164;5.802;2022-10-23T01:58:43;101546.50;;;7.88;100.00
52535;BME280;38443;53.164;5.802;2022-10-23T02:01:10;101545.59;;;7.90;100.00
52535;BME280;38443;53.164;5.802;2022-10-23T02:03:39;101540.22;;;7.93;100.00
52535;BME280;38443;53.164;5.802;2022-10-23T02:06:06;101549.06;;;7.98;100.00
52535;BME280;38443;53.164;5.802;2022-10-23T02:08:32;101540.16;;;7.99;100.00
52535;BME280;38443;53.164;5.802;2022-10-23T02:11:15;101535.75;;;8.00;100.00
52535;BME280;38443;53.164;5.802;2022-10-23T02:13:55;101543.75;;;8.00;100.00
52535;BME280;38443;53.164;5.802;2022-10-23T02:16:36;101540.16;;;8.01;100.00
52535;BME280;38443;53.164;5.802;2022-10-23T02:22:08;101538.31;;;8.08;100.00
52535;BME280;38443;53.164;5.802;2022-10-23T02:24:57;101534.78;;;8.09;100.00
52535;BME280;38443;53.164;5.802;2022-10-23T02:27:29;101523.25;;;8.08;100.00
52535;BME280;38443;53.164;5.802;2022-10-23T02:30:08;101517.00;;;8.09;100.00
52535;BME280;38443;53.164;5.802;2022-10-23T02:32:35;101515.19;;;8.11;100.00
52535;BME280;38443;53.164;5.802;2022-10-23T02:35:03;101513.44;;;8.10;100.00
52535;BME280;38443;53.164;5.802;2022-10-23T02:37:28;101502.78;;;8.10;100.00
52535;BME280;38443;53.164;5.802;2022-10-23T02:39:54;101509.00;;;8.09;100.00
52535;BME280;38443;53.164;5.802;2022-10-23T02:42:27;101505.47;;;8.06;100.00
52535;BME280;38443;53.164;5.802;2022-10-23T02:45:04;101496.56;;;8.07;100.00
52535;BME280;38443;53.164;5.802;2022-10-23T02:47:43;101493.94;;;8.04;100.00
52535;BME280;38443;53.164;5.802;2022-10-23T02:50:49;101479.75;;;8.00;100.00
52535;BME280;38443;53.164;5.802;2022-10-23T02:53:26;101476.19;;;8.01;100.00
52535;BME280;38443;53.164;5.802;2022-10-23T02:56:13;101479.72;;;8.03;100.00
52535;BME280;38443;53.164;5.802;2022-10-23T02:58:47;101488.63;;;8.02;100.00
52535;BME280;38443;53.164;5.802;2022-10-23T03:01:23;101486.03;;;7.96;100.00
52535;BME280;38443;53.164;5.802;2022-10-23T03:03:52;101486.94;;;7.89;100.00
52535;BME280;38443;53.164;5.802;2022-10-23T03:06:19;101472.75;;;7.84;100.00
52535;BME280;38443;53.164;5.802;2022-10-23T03:08:57;101474.59;;;7.80;100.00
52535;BME280;38443;53.164;5.802;2022-10-23T03:11:23;101474.59;;;7.78;100.00
52535;BME280;38443;53.164;5.802;2022-10-23T03:13:48;101473.72;;;7.78;100.00
52535;BME280;38443;53.164;5.802;2022-10-23T03:16:14;101477.22;;;7.83;100.00
52535;BME280;38443;53.164;5.802;2022-10-23T03:18:39;101474.53;;;7.86;100.00
52535;BME280;38443;53.164;5.802;2022-10-23T03:21:07;101483.41;;;7.88;100.00
52535;BME280;38443;53.164;5.802;2022-10-23T03:23:33;101467.41;;;7.88;100.00
52535;BME280;38443;53.164;5.802;2022-10-23T03:25:58;101457.63;;;7.89;100.00
52535;BME280;38443;53.164;5.802;2022-10-23T03:28:24;101463.88;;;7.86;100.00
52535;BME280;38443;53.164;5.802;2022-10-23T03:30:49;101463.88;;;7.85;100.00
52535;BME280;38443;53.164;5.802;2022-10-23T03:33:15;101466.53;;;7.86;100.00
52535;BME280;38443;53.164;5.802;2022-10-23T03:35:40;101459.41;;;7.90;100.00
52535;BME280;38443;53.164;5.802;2022-10-23T03:38:05;101462.03;;;7.93;100.00
52535;BME280;38443;53.164;5.802;2022-10-23T03:40:31;101454.91;;;7.93;100.00
52535;BME280;38443;53.164;5.802;2022-10-23T03:42:56;101449.63;;;7.89;100.00
52535;BME280;38443;53.164;5.802;2022-10-23T03:45:22;101453.19;;;7.89;100.00
52535;BME280;38443;53.164;5.802;2022-10-23T03:47:47;101455.91;;;7.83;100.00
52535;BME280;38443;53.164;5.802;2022-10-23T03:50:14;101449.69;;;7.83;100.00
52535;BME280;38443;53.164;5.802;2022-10-23T03:52:40;101450.56;;;7.82;100.00
52535;BME280;38443;53.164;5.802;2022-10-23T03:55:05;101447.88;;;7.86;100.00
52535;BME280;38443;53.164;5.802;2022-10-23T03:57:31;101434.56;;;7.88;100.00
52535;BME280;38443;53.164;5.802;2022-10-23T03:59:56;101439.84;;;7.92;100.00
52535;BME280;38443;53.164;5.802;2022-10-23T04:02:22;101439.78;;;7.95;100.00
52535;BME280;38443;53.164;5.802;2022-10-23T04:04:47;101442.44;;;8.00;100.00
52535;BME280;38443;53.164;5.802;2022-10-23T04:07:15;101444.13;;;8.07;100.00
52535;BME280;38443;53.164;5.802;2022-10-23T04:09:41;101440.53;;;8.11;100.00
52535;BME280;38443;53.164;5.802;2022-10-23T04:12:06;101434.25;;;8.18;100.00
52535;BME280;38443;53.164;5.802;2022-10-23T04:14:31;101428.91;;;8.20;100.00
52535;BME280;38443;53.164;5.802;2022-10-23T04:16:57;101427.09;;;8.24;100.00
52535;BME280;38443;53.164;5.802;2022-10-23T04:19:22;101420.88;;;8.23;100.00
52535;BME280;38443;53.164;5.802;2022-10-23T04:21:48;101421.72;;;8.27;100.00
52535;BME280;38443;53.164;5.802;2022-10-23T04:24:13;101423.47;;;8.29;100.00
52535;BME280;38443;53.164;5.802;2022-10-23T04:26:38;101419.91;;;8.32;100.00
52535;BME280;38443;53.164;5.802;2022-10-23T04:29:04;101429.69;;;8.30;100.00
52535;BME280;38443;53.164;5.802;2022-10-23T04:31:29;101429.69;;;8.30;100.00
52535;BME280;38443;53.164;5.802;2022-10-23T04:33:54;101435.94;;;8.29;100.00
52535;BME280;38443;53.164;5.802;2022-10-23T04:36:20;101424.34;;;8.30;100.00
52535;BME280;38443;53.164;5.802;2022-10-23T04:38:45;101417.25;;;8.29;100.00
52535;BME280;38443;53.164;5.802;2022-10-23T04:41:12;101415.47;;;8.29;100.00
52535;BME280;38443;53.164;5.802;2022-10-23T04:43:37;101417.31;;;8.24;100.00
52535;BME280;38443;53.164;5.802;2022-10-23T04:46:02;101407.53;;;8.25;100.00
52535;BME280;38443;53.164;5.802;2022-10-23T04:48:28;101400.47;;;8.21;100.00
52535;BME280;38443;53.164;5.802;2022-10-23T04:50:58;101401.34;;;8.23;100.00
52535;BME280;38443;53.164;5.802;2022-10-23T04:53:26;101397.78;;;8.22;100.00
52535;BME280;38443;53.164;5.802;2022-10-23T04:55:53;101402.22;;;8.23;100.00
52535;BME280;38443;53.164;5.802;2022-10-23T04:58:20;101394.19;;;8.23;100.00
52535;BME280;38443;53.164;5.802;2022-10-23T05:00:46;101396.88;;;8.23;100.00
52535;BME280;38443;53.164;5.802;2022-10-23T05:03:13;101389.75;;;8.24;100.00
52535;BME280;38443;53.164;5.802;2022-10-23T05:05:39;101390.66;;;8.24;100.00
52535;BME280;38443;53.164;5.802;2022-10-23T05:08:04;101379.06;;;8.24;100.00
52535;BME280;38443;53.164;5.802;2022-10-23T05:10:29;101384.41;;;8.27;100.00
52535;BME280;38443;53.164;5.802;2022-10-23T05:12:55;101379.94;;;8.27;100.00
52535;BME280;38443;53.164;5.802;2022-10-23T05:15:20;101371.94;;;8.29;100.00
52535;BME280;38443;53.164;5.802;2022-10-23T05:17:46;101367.47;;;8.28;100.00
52535;BME280;38443;53.164;5.802;2022-10-23T05:20:17;101363.94;;;8.26;100.00
52535;BME280;38443;53.164;5.802;2022-10-23T05:22:45;101368.41;;;8.25;100.00
52535;BME280;38443;53.164;5.802;2022-10-23T05:25:13;101355.06;;;8.24;100.00
52535;BME280;38443;53.164;5.802;2022-10-23T05:27:38;101351.53;;;8.23;100.00
52535;BME280;38443;53.164;5.802;2022-10-23T05:30:04;101351.53;;;8.23;100.00
52535;BME280;38443;53.164;5.802;2022-10-23T05:32:30;101354.25;;;8.18;100.00
52535;BME280;38443;53.164;5.802;2022-10-23T05:34:57;101348.06;;;8.15;100.00
52535;BME280;38443;53.164;5.802;2022-10-23T05:37:23;101345.47;;;8.12;100.00
52535;BME280;38443;53.164;5.802;2022-10-23T05:39:49;101351.69;;;8.09;100.00
52535;BME280;38443;53.164;5.802;2022-10-23T05:42:14;101350.88;;;8.03;100.00
52535;BME280;38443;53.164;5.802;2022-10-23T05:44:40;101353.53;;;8.03;100.00
52535;BME280;38443;53.164;5.802;2022-10-23T05:47:05;101358.03;;;7.97;100.00
52535;BME280;38443;53.164;5.802;2022-10-23T05:49:31;101353.63;;;7.96;100.00
52535;BME280;38443;53.164;5.802;2022-10-23T05:51:56;101345.63;;;7.95;100.00
52535;BME280;38443;53.164;5.802;2022-10-23T05:54:21;101335.81;;;7.98;100.00
52535;BME280;38443;53.164;5.802;2022-10-23T05:56:47;101334.03;;;7.97;100.00
52535;BME280;38443;53.164;5.802;2022-10-23T05:59:12;101318.94;;;7.98;100.00
52535;BME280;38443;53.164;5.802;2022-10-23T06:01:37;101323.38;;;7.99;100.00
52535;BME280;38443;53.164;5.802;2022-10-23T06:04:04;101326.03;;;8.01;100.00
52535;BME280;38443;53.164;5.802;2022-10-23T06:06:30;101321.56;;;8.01;100.00
52535;BME280;38443;53.164;5.802;2022-10-23T06:08:55;101319.75;;;8.03;100.00
52535;BME280;38443;53.164;5.802;2022-10-23T06:11:23;101317.97;;;8.07;100.00
52535;BME280;38443;53.164;5.802;2022-10-23T06:13:49;101322.34;;;8.12;100.00
52535;BME280;38443;53.164;5.802;2022-10-23T06:16:18;101320.47;;;8.17;100.00
52535;BME280;38443;53.164;5.802;2022-10-23T06:18:47;101324.94;;;8.18;100.00
52535;BME280;38443;53.164;5.802;2022-10-23T06:21:13;101322.19;;;8.25;100.00
52535;BME280;38443;53.164;5.802;2022-10-23T06:23:40;101323.03;;;8.28;100.00
52535;BME280;38443;53.164;5.802;2022-10-23T06:26:08;101315.00;;;8.31;100.00
52535;BME280;38443;53.164;5.802;2022-10-23T06:28:36;101311.44;;;8.34;100.00
52535;BME280;38443;53.164;5.802;2022-10-23T06:31:07;101313.19;;;8.35;100.00
52535;BME280;38443;53.164;5.802;2022-10-23T06:33:32;101307.78;;;8.44;100.00
52535;BME280;38443;53.164;5.802;2022-10-23T06:35:57;101310.22;;;8.59;100.00
52535;BME280;38443;53.164;5.802;2022-10-23T06:38:23;101310.13;;;8.66;100.00
52535;BME280;38443;53.164;5.802;2022-10-23T06:40:55;101316.28;;;8.71;100.00
52535;BME280;38443;53.164;5.802;2022-10-23T06:43:21;101317.06;;;8.79;100.00
52535;BME280;38443;53.164;5.802;2022-10-23T06:45:46;101309.03;;;8.81;100.00
52535;BME280;38443;53.164;5.802;2022-10-23T06:48:12;101300.94;;;8.85;100.00
52535;BME280;38443;53.164;5.802;2022-10-23T06:50:38;101310.69;;;8.88;100.00
52535;BME280;38443;53.164;5.802;2022-10-23T06:53:03;101320.50;;;8.87;100.00
52535;BME280;38443;53.164;5.802;2022-10-23T06:55:29;101320.47;;;8.90;100.00
52535;BME280;38443;53.164;5.802;2022-10-23T06:57:54;101315.09;;;8.92;100.00
52535;BME280;38443;53.164;5.802;2022-10-23T07:00:20;101317.72;;;8.96;100.00
52535;BME280;38443;53.164;5.802;2022-10-23T07:02:45;101318.50;;;9.02;100.00
52535;BME280;38443;53.164;5.802;2022-10-23T07:05:11;101317.63;;;9.03;100.00
52535;BME280;38443;53.164;5.802;2022-10-23T07:07:36;101322.03;;;9.04;100.00
52535;BME280;38443;53.164;5.802;2022-10-23T07:10:01;101323.78;;;9.06;100.00
52535;BME280;38443;53.164;5.802;2022-10-23T07:12:27;101318.38;;;9.09;100.00
52535;BME280;38443;53.164;5.802;2022-10-23T07:14:52;101314.78;;;9.12;100.00
52535;BME280;38443;53.164;5.802;2022-10-23T07:17:17;101309.41;;;9.13;100.00
52535;BME280;38443;53.164;5.802;2022-10-23T07:19:45;101310.28;;;9.15;100.00
52535;BME280;38443;53.164;5.802;2022-10-23T07:22:10;101312.94;;;9.17;100.00
52535;BME280;38443;53.164;5.802;2022-10-23T07:24:39;101297.75;;;9.19;100.00
52535;BME280;38443;53.164;5.802;2022-10-23T07:27:04;101292.38;;;9.22;100.00
52535;BME280;38443;53.164;5.802;2022-10-23T07:29:30;101293.19;;;9.27;100.00
52535;BME280;38443;53.164;5.802;2022-10-23T07:31:56;101289.56;;;9.30;100.00
52535;BME280;38443;53.164;5.802;2022-10-23T07:34:22;101290.38;;;9.35;100.00
52535;BME280;38443;53.164;5.802;2022-10-23T07:36:47;101284.97;;;9.38;100.00
52535;BME280;38443;53.164;5.802;2022-10-23T07:39:12;101292.94;;;9.43;100.00
52535;BME280;38443;53.164;5.802;2022-10-23T07:41:38;101280.34;;;9.48;100.00
52535;BME280;38443;53.164;5.802;2022-10-23T07:44:03;101277.63;;;9.52;100.00
52535;BME280;38443;53.164;5.802;2022-10-23T07:46:28;101282.84;;;9.58;100.00
52535;BME280;38443;53.164;5.802;2022-10-23T07:48:54;101270.25;;;9.64;100.00
52535;BME280;38443;53.164;5.802;2022-10-23T07:51:19;101272.88;;;9.68;100.00
52535;BME280;38443;53.164;5.802;2022-10-23T07:53:45;101264.75;;;9.73;100.00
52535;BME280;38443;53.164;5.802;2022-10-23T07:56:12;101260.25;;;9.76;100.00
52535;BME280;38443;53.164;5.802;2022-10-23T07:58:38;101264.56;;;9.82;100.00
52535;BME280;38443;53.164;5.802;2022-10-23T08:01:04;101258.28;;;9.86;100.00
52535;BME280;38443;53.164;5.802;2022-10-23T08:03:35;101268.88;;;9.91;100.00
52535;BME280;38443;53.164;5.802;2022-10-23T08:06:00;101260.75;;;9.95;100.00
52535;BME280;38443;53.164;5.802;2022-10-23T08:08:26;101260.63;;;10.00;100.00
52535;BME280;38443;53.164;5.802;2022-10-23T08:10:52;101269.50;;;10.02;100.00
52535;BME280;38443;53.164;5.802;2022-10-23T08:13:18;101267.66;;;10.06;100.00
52535;BME280;38443;53.164;5.802;2022-10-23T08:15:47;101276.50;;;10.09;100.00
52535;BME280;38443;53.164;5.802;2022-10-23T08:18:13;101259.50;;;10.12;100.00
52535;BME280;38443;53.164;5.802;2022-10-23T08:20:39;101256.75;;;10.16;100.00
52535;BME280;38443;53.164;5.802;2022-10-23T08:23:04;101261.97;;;10.23;100.00
52535;BME280;38443;53.164;5.802;2022-10-23T08:25:29;101273.47;;;10.26;100.00
52535;BME280;38443;53.164;5.802;2022-10-23T08:27:54;101274.31;;;10.31;100.00
52535;BME280;38443;53.164;5.802;2022-10-23T08:30:20;101258.13;;;10.37;100.00
52535;BME280;38443;53.164;5.802;2022-10-23T08:32:45;101258.00;;;10.42;100.00
52535;BME280;38443;53.164;5.802;2022-10-23T08:35:10;101252.50;;;10.48;100.00
52535;BME280;38443;53.164;5.802;2022-10-23T08:37:35;101253.31;;;10.53;100.00
52535;BME280;38443;53.164;5.802;2022-10-23T08:40:01;101247.84;;;10.58;100.00
52535;BME280;38443;53.164;5.802;2022-10-23T08:42:27;101246.81;;;10.64;100.00
52535;BME280;38443;53.164;5.802;2022-10-23T08:49:56;101244.75;;;10.76;100.00
52535;BME280;38443;53.164;5.802;2022-10-23T08:57:27;101236.34;;;10.92;100.00
52535;BME280;38443;53.164;5.802;2022-10-23T09:00:10;101229.97;;;10.97;100.00
52535;BME280;38443;53.164;5.802;2022-10-23T09:02:44;101235.16;;;11.04;100.00
52535;BME280;38443;53.164;5.802;2022-10-23T09:05:11;101216.25;;;11.10;100.00
52535;BME280;38443;53.164;5.802;2022-10-23T09:12:46;101210.47;;;11.27;100.00
52535;BME280;38443;53.164;5.802;2022-10-23T09:15:17;101204.97;;;11.31;100.00
52535;BME280;38443;53.164;5.802;2022-10-23T09:17:45;101212.84;;;11.37;100.00
52535;BME280;38443;53.164;5.802;2022-10-23T09:20:25;101209.16;;;11.42;100.00
52535;BME280;38443;53.164;5.802;2022-10-23T09:22:54;101207.28;;;11.45;100.00
52535;BME280;38443;53.164;5.802;2022-10-23T09:25:23;101207.19;;;11.48;100.00
52535;BME280;38443;53.164;5.802;2022-10-23T09:27:53;101203.47;;;11.54;100.00
52535;BME280;38443;53.164;5.802;2022-10-23T09:30:26;101202.44;;;11.60;100.00
52535;BME280;38443;53.164;5.802;2022-10-23T09:32:51;101197.88;;;11.63;100.00
52535;BME280;38443;53.164;5.802;2022-10-23T09:35:23;101195.03;;;11.68;100.00
52535;BME280;38443;53.164;5.802;2022-10-23T09:37:49;101190.31;;;11.77;100.00
52535;BME280;38443;53.164;5.802;2022-10-23T09:43:13;101180.19;;;11.89;100.00
52535;BME280;38443;53.164;5.802;2022-10-23T09:45:38;101172.03;;;11.92;100.00
52535;BME280;38443;53.164;5.802;2022-10-23T09:50:35;101162.94;;;11.97;100.00
52535;BME280;38443;53.164;5.802;2022-10-23T09:53:00;101166.41;;;12.01;100.00
52535;BME280;38443;53.164;5.802;2022-10-23T09:55:25;101156.50;;;12.03;100.00
52535;BME280;38443;53.164;5.802;2022-10-23T09:57:51;101156.41;;;12.06;100.00
52535;BME280;38443;53.164;5.802;2022-10-23T10:00:19;101148.31;;;12.08;100.00
52535;BME280;38443;53.164;5.802;2022-10-23T10:02:56;101149.09;;;12.11;100.00
52535;BME280;38443;53.164;5.802;2022-10-23T10:05:26;101139.19;;;12.13;100.00
52535;BME280;38443;53.164;5.802;2022-10-23T10:07:55;101139.91;;;12.18;100.00
52535;BME280;38443;53.164;5.802;2022-10-23T10:10:22;101146.94;;;12.23;100.00
52535;BME280;38443;53.164;5.802;2022-10-23T10:12:52;101144.09;;;12.29;100.00
52535;BME280;38443;53.164;5.802;2022-10-23T10:15:26;101136.78;;;12.32;100.00
52535;BME280;38443;53.164;5.802;2022-10-23T10:17:59;101138.41;;;12.38;100.00
52535;BME280;38443;53.164;5.802;2022-10-23T10:22:57;101140.78;;;12.49;100.00
52535;BME280;38443;53.164;5.802;2022-10-23T10:30:26;101135.34;;;12.77;100.00
52535;BME280;38443;53.164;5.802;2022-10-23T10:38:22;101124.63;;;13.02;100.00
52535;BME280;38443;53.164;5.802;2022-10-23T10:43:57;101117.03;;;13.15;99.10
52535;BME280;38443;53.164;5.802;2022-10-23T10:46:34;101113.22;;;13.21;99.17
52535;BME280;38443;53.164;5.802;2022-10-23T10:51:50;101110.06;;;13.34;98.86
52535;BME280;38443;53.164;5.802;2022-10-23T10:54:21;101097.34;;;13.40;97.83
52535;BME280;38443;53.164;5.802;2022-10-23T10:56:50;101097.22;;;13.43;97.76
52535;BME280;38443;53.164;5.802;2022-10-23T10:59:19;101096.13;;;13.48;98.02
52535;BME280;38443;53.164;5.802;2022-10-23T11:04:45;101081.53;;;13.55;97.20
52535;BME280;38443;53.164;5.802;2022-10-23T11:07:14;101084.91;;;13.61;97.01
52535;BME280;38443;53.164;5.802;2022-10-23T11:09:42;101074.03;;;13.64;96.34
52535;BME280;38443;53.164;5.802;2022-10-23T11:12:19;101064.03;;;13.67;96.07
52535;BME280;38443;53.164;5.802;2022-10-23T11:14:46;101052.22;;;13.71;96.62
52535;BME280;38443;53.164;5.802;2022-10-23T11:17:17;101033.31;;;13.73;95.55
52535;BME280;38443;53.164;5.802;2022-10-23T11:19:48;101032.25;;;13.77;95.89
52535;BME280;38443;53.164;5.802;2022-10-23T11:22:41;101032.19;;;13.79;95.49
52535;BME280;38443;53.164;5.802;2022-10-23T11:28:07;101014.88;;;13.86;94.70
52535;BME280;38443;53.164;5.802;2022-10-23T11:30:54;101001.28;;;13.89;94.22
52535;BME280;38443;53.164;5.802;2022-10-23T11:33:31;100999.41;;;13.91;93.65
52535;BME280;38443;53.164;5.802;2022-10-23T11:36:11;100995.66;;;13.95;93.72
52535;BME280;38443;53.164;5.802;2022-10-23T11:38:41;100982.94;;;13.99;93.96
52535;BME280;38443;53.164;5.802;2022-10-23T11:41:20;100971.25;;;14.00;93.08
52535;BME280;38443;53.164;5.802;2022-10-23T11:43:47;100964.88;;;14.02;94.11
52535;BME280;38443;53.164;5.802;2022-10-23T11:46:14;100968.44;;;14.03;92.49
52535;BME280;38443;53.164;5.802;2022-10-23T11:48:54;100952.22;;;14.04;92.98
52535;BME280;38443;53.164;5.802;2022-10-23T11:51:36;100943.13;;;14.07;93.29
52535;BME280;38443;53.164;5.802;2022-10-23T11:56:37;100943.88;;;14.10;93.36
52535;BME280;38443;53.164;5.802;2022-10-23T12:01:42;100950.94;;;14.13;93.74
52535;BME280;38443;53.164;5.802;2022-10-23T12:06:41;100934.72;;;14.14;93.80
52535;BME280;38443;53.164;5.802;2022-10-23T12:11:47;100912.34;;;14.14;93.48
52535;BME280;38443;53.164;5.802;2022-10-23T12:16:53;100910.50;;;14.14;93.50
52535;BME280;38443;53.164;5.802;2022-10-23T12:19:19;100897.09;;;14.13;93.76
52535;BME280;38443;53.164;5.802;2022-10-23T12:21:45;100884.59;;;14.12;94.03
52535;BME280;38443;53.164;5.802;2022-10-23T12:24:32;100883.81;;;14.10;93.48
52535;BME280;38443;53.164;5.802;2022-10-23T12:29:54;100877.56;;;14.09;93.00
52535;BME280;38443;53.164;5.802;2022-10-23T12:37:22;100862.31;;;14.08;93.58
52535;BME280;38443;53.164;5.802;2022-10-23T12:39:54;100844.44;;;14.07;93.94
52535;BME280;38443;53.164;5.802;2022-10-23T12:42:20;100849.03;;;14.05;93.69
52535;BME280;38443;53.164;5.802;2022-10-23T12:44:56;100831.09;;;14.04;93.88
52535;BME280;38443;53.164;5.802;2022-10-23T12:47:21;100815.91;;;14.03;93.84
52535;BME280;38443;53.164;5.802;2022-10-23T12:49:47;100823.84;;;14.06;94.07
52535;BME280;38443;53.164;5.802;2022-10-23T12:52:14;100800.41;;;14.08;93.32
52535;BME280;38443;53.164;5.802;2022-10-23T12:54:39;100803.13;;;14.08;93.17
52535;BME280;38443;53.164;5.802;2022-10-23T12:57:39;100798.59;;;14.09;92.81
52535;BME280;38443;53.164;5.802;2022-10-23T12:59:58;100792.28;;;14.10;92.77
52535;BME280;38443;53.164;5.802;2022-10-23T13:02:28;100790.47;;;14.10;92.89
52535;BME280;38443;53.164;5.802;2022-10-23T13:04:54;100782.53;;;14.07;93.07
52535;BME280;38443;53.164;5.802;2022-10-23T13:07:24;100789.72;;;14.07;93.05
52535;BME280;38443;53.164;5.802;2022-10-23T13:09:50;100767.47;;;14.03;93.38
52535;BME280;38443;53.164;5.802;2022-10-23T13:12:18;100764.84;;;14.02;93.02
52535;BME280;38443;53.164;5.802;2022-10-23T13:14:58;100759.53;;;14.00;92.89
52535;BME280;38443;53.164;5.802;2022-10-23T13:17:35;100760.44;;;13.99;93.11
52535;BME280;38443;53.164;5.802;2022-10-23T13:22:42;100750.78;;;13.95;93.44
52535;BME280;38443;53.164;5.802;2022-10-23T13:25:23;100739.19;;;13.93;93.90
52535;BME280;38443;53.164;5.802;2022-10-23T13:27:49;100722.25;;;13.91;92.88
52535;BME280;38443;53.164;5.802;2022-10-23T13:35:38;100714.84;;;13.96;93.29
52535;BME280;38443;53.164;5.802;2022-10-23T13:38:07;100700.44;;;13.97;93.31
52535;BME280;38443;53.164;5.802;2022-10-23T13:40:32;100708.44;;;13.99;92.77
52535;BME280;38443;53.164;5.802;2022-10-23T13:42:58;100704.78;;;14.01;92.43
52535;BME280;38443;53.164;5.802;2022-10-23T13:45:24;100701.06;;;14.04;92.92
52535;BME280;38443;53.164;5.802;2022-10-23T13:47:50;100712.69;;;14.04;92.98
52535;BME280;38443;53.164;5.802;2022-10-23T13:50:16;100714.34;;;14.07;92.90
52535;BME280;38443;53.164;5.802;2022-10-23T13:52:41;100700.91;;;14.07;92.63
52535;BME280;38443;53.164;5.802;2022-10-23T13:55:22;100709.88;;;14.07;92.27
52535;BME280;38443;53.164;5.802;2022-10-23T13:57:48;100700.84;;;14.08;92.39
52535;BME280;38443;53.164;5.802;2022-10-23T14:00:14;100697.28;;;14.08;92.52
52535;BME280;38443;53.164;5.802;2022-10-23T14:02:40;100698.09;;;14.10;92.84
52535;BME280;38443;53.164;5.802;2022-10-23T14:05:05;100694.53;;;14.09;92.91
52535;BME280;38443;53.164;5.802;2022-10-23T14:07:31;100707.97;;;14.09;92.73
52535;BME280;38443;53.164;5.802;2022-10-23T14:09:56;100691.84;;;14.09;92.95
52535;BME280;38443;53.164;5.802;2022-10-23T14:12:21;100682.00;;;14.08;92.90
52535;BME280;38443;53.164;5.802;2022-10-23T14:14:52;100682.00;;;14.08;93.01
52535;BME280;38443;53.164;5.802;2022-10-23T14:17:18;100682.84;;;14.09;92.70
52535;BME280;38443;53.164;5.802;2022-10-23T14:19:44;100678.44;;;14.08;93.03
52535;BME280;38443;53.164;5.802;2022-10-23T14:22:09;100666.81;;;14.07;93.17
52535;BME280;38443;53.164;5.802;2022-10-23T14:24:35;100664.97;;;14.08;93.27